sensor_id;sensor_type;location;lat;lon;timestamp;P1;durP1;ratioP1;P2;durP2;ratioP2
78744;SDS011;68064;53.100;8.824;2023-08-20T00:00:15;8.60;;;1.70;;
78744;SDS011;68064;53.100;8.824;2023-08-20T00:01:17;7.07;;;1.58;;
78744;SDS011;68064;53.100;8.824;2023-08-20T00:02:22;6.63;;;1.48;;
78744;SDS011;68064;53.100;8.824;2023-08-20T00:03:25;7.80;;;1.73;;
78744;SDS011;68064;53.100;8.824;2023-08-20T00:04:27;6.55;;;1.38;;
78744;SDS011;68064;53.100;8.824;2023-08-20T00:05:29;7.22;;;1.88;;
78744;SDS011;68064;53.100;8.824;2023-08-20T00:06:31;6.40;;;1.52;;
78744;SDS011;68064;53.100;8.824;2023-08-20T00:07:32;7.97;;;2.00;;
78744;SDS011;68064;53.100;8.824;2023-08-20T00:08:34;11.27;;;2.10;;
78744;SDS011;68064;53.100;8.824;2023-08-20T00:09:35;7.63;;;1.27;;
78744;SDS011;68064;53.100;8.824;2023-08-20T00:10:36;7.57;;;2.10;;
78744;SDS011;68064;53.100;8.824;2023-08-20T00:12:38;8.30;;;1.45;;
78744;SDS011;68064;53.100;8.824;2023-08-20T00:14:53;8.63;;;1.48;;
78744;SDS011;68064;53.100;8.824;2023-08-20T00:15:55;7.50;;;1.63;;
78744;SDS011;68064;53.100;8.824;2023-08-20T00:16:57;7.80;;;1.85;;
78744;SDS011;68064;53.100;8.824;2023-08-20T00:17:59;7.57;;;1.63;;
78744;SDS011;68064;53.100;8.824;2023-08-20T00:19:02;7.75;;;2.05;;
78744;SDS011;68064;53.100;8.824;2023-08-20T00:20:04;8.35;;;1.83;;
78744;SDS011;68064;53.100;8.824;2023-08-20T00:21:07;8.02;;;1.77;;
78744;SDS011;68064;53.100;8.824;2023-08-20T00:22:08;7.15;;;1.67;;
78744;SDS011;68064;53.100;8.824;2023-08-20T00:24:11;6.70;;;1.52;;
78744;SDS011;68064;53.100;8.824;2023-08-20T00:25:13;7.50;;;1.48;;
78744;SDS011;68064;53.100;8.824;2023-08-20T00:26:15;7.80;;;1.40;;
78744;SDS011;68064;53.100;8.824;2023-08-20T00:27:17;7.05;;;1.25;;
78744;SDS011;68064;53.100;8.824;2023-08-20T00:28:18;8.80;;;1.50;;
78744;SDS011;68064;53.100;8.824;2023-08-20T00:29:20;7.30;;;1.52;;
78744;SDS011;68064;53.100;8.824;2023-08-20T00:30:21;8.13;;;1.45;;
78744;SDS011;68064;53.100;8.824;2023-08-20T00:31:22;6.45;;;1.33;;
78744;SDS011;68064;53.100;8.824;2023-08-20T00:33:24;7.55;;;1.10;;
78744;SDS011;68064;53.100;8.824;2023-08-20T00:34:26;8.35;;;1.63;;
78744;SDS011;68064;53.100;8.824;2023-08-20T00:35:28;6.82;;;1.60;;
78744;SDS011;68064;53.100;8.824;2023-08-20T00:37:30;7.88;;;1.23;;
78744;SDS011;68064;53.100;8.824;2023-08-20T00:38:31;7.00;;;1.67;;
78744;SDS011;68064;53.100;8.824;2023-08-20T00:40:33;7.80;;;1.77;;
78744;SDS011;68064;53.100;8.824;2023-08-20T00:41:34;8.00;;;1.40;;
78744;SDS011;68064;53.100;8.824;2023-08-20T00:42:35;6.75;;;1.13;;
78744;SDS011;68064;53.100;8.824;2023-08-20T00:43:37;7.07;;;1.08;;
78744;SDS011;68064;53.100;8.824;2023-08-20T00:44:38;6.65;;;1.30;;
78744;SDS011;68064;53.100;8.824;2023-08-20T00:45:40;6.70;;;1.60;;
78744;SDS011;68064;53.100;8.824;2023-08-20T00:46:41;5.90;;;1.13;;
78744;SDS011;68064;53.100;8.824;2023-08-20T00:48:43;6.15;;;1.35;;
78744;SDS011;68064;53.100;8.824;2023-08-20T00:50:47;6.00;;;1.38;;
78744;SDS011;68064;53.100;8.824;2023-08-20T00:51:49;6.82;;;1.40;;
78744;SDS011;68064;53.100;8.824;2023-08-20T00:52:51;7.68;;;1.25;;
78744;SDS011;68064;53.100;8.824;2023-08-20T00:53:52;7.43;;;1.45;;
78744;SDS011;68064;53.100;8.824;2023-08-20T00:55:54;8.25;;;1.52;;
78744;SDS011;68064;53.100;8.824;2023-08-20T00:56:55;6.82;;;1.42;;
78744;SDS011;68064;53.100;8.824;2023-08-20T00:58:58;7.32;;;1.30;;
78744;SDS011;68064;53.100;8.824;2023-08-20T00:59:59;6.22;;;1.30;;
78744;SDS011;68064;53.100;8.824;2023-08-20T01:01:01;6.70;;;1.50;;
78744;SDS011;68064;53.100;8.824;2023-08-20T01:02:02;8.57;;;1.77;;
78744;SDS011;68064;53.100;8.824;2023-08-20T01:03:04;7.03;;;0.90;;
78744;SDS011;68064;53.100;8.824;2023-08-20T01:04:05;6.25;;;0.80;;
78744;SDS011;68064;53.100;8.824;2023-08-20T01:06:12;6.80;;;1.90;;
78744;SDS011;68064;53.100;8.824;2023-08-20T01:07:21;7.03;;;1.52;;
78744;SDS011;68064;53.100;8.824;2023-08-20T01:08:33;7.00;;;1.20;;
78744;SDS011;68064;53.100;8.824;2023-08-20T01:09:40;6.50;;;1.05;;
78744;SDS011;68064;53.100;8.824;2023-08-20T01:10:51;5.38;;;1.00;;
78744;SDS011;68064;53.100;8.824;2023-08-20T01:11:59;8.23;;;1.08;;
78744;SDS011;68064;53.100;8.824;2023-08-20T01:13:03;5.15;;;0.68;;
78744;SDS011;68064;53.100;8.824;2023-08-20T01:14:13;5.00;;;0.93;;
78744;SDS011;68064;53.100;8.824;2023-08-20T01:15:15;5.35;;;1.55;;
78744;SDS011;68064;53.100;8.824;2023-08-20T01:17:17;6.00;;;0.90;;
78744;SDS011;68064;53.100;8.824;2023-08-20T01:18:18;6.60;;;0.70;;
78744;SDS011;68064;53.100;8.824;2023-08-20T01:19:20;6.40;;;1.77;;
78744;SDS011;68064;53.100;8.824;2023-08-20T01:20:24;8.85;;;1.35;;
78744;SDS011;68064;53.100;8.824;2023-08-20T01:21:30;5.93;;;0.75;;
78744;SDS011;68064;53.100;8.824;2023-08-20T01:24:10;6.32;;;1.67;;
78744;SDS011;68064;53.100;8.824;2023-08-20T01:25:24;7.60;;;1.17;;
78744;SDS011;68064;53.100;8.824;2023-08-20T01:26:41;6.93;;;1.65;;
78744;SDS011;68064;53.100;8.824;2023-08-20T01:28:03;5.78;;;1.00;;
78744;SDS011;68064;53.100;8.824;2023-08-20T01:29:18;5.47;;;1.13;;
78744;SDS011;68064;53.100;8.824;2023-08-20T01:30:19;7.47;;;1.52;;
78744;SDS011;68064;53.100;8.824;2023-08-20T01:31:22;6.18;;;0.95;;
78744;SDS011;68064;53.100;8.824;2023-08-20T01:32:25;5.05;;;0.63;;
78744;SDS011;68064;53.100;8.824;2023-08-20T01:33:26;5.20;;;0.98;;
78744;SDS011;68064;53.100;8.824;2023-08-20T01:34:28;7.65;;;0.90;;
78744;SDS011;68064;53.100;8.824;2023-08-20T01:35:30;8.18;;;1.25;;
78744;SDS011;68064;53.100;8.824;2023-08-20T01:36:31;6.65;;;0.70;;
78744;SDS011;68064;53.100;8.824;2023-08-20T01:37:32;7.75;;;0.98;;
78744;SDS011;68064;53.100;8.824;2023-08-20T01:38:34;6.43;;;1.30;;
78744;SDS011;68064;53.100;8.824;2023-08-20T01:39:35;5.70;;;1.35;;
78744;SDS011;68064;53.100;8.824;2023-08-20T01:40:36;6.47;;;0.90;;
78744;SDS011;68064;53.100;8.824;2023-08-20T01:41:37;6.65;;;0.73;;
78744;SDS011;68064;53.100;8.824;2023-08-20T01:43:41;5.82;;;1.05;;
78744;SDS011;68064;53.100;8.824;2023-08-20T01:44:42;7.22;;;1.20;;
78744;SDS011;68064;53.100;8.824;2023-08-20T01:45:43;5.38;;;0.70;;
78744;SDS011;68064;53.100;8.824;2023-08-20T01:46:44;5.05;;;0.82;;
78744;SDS011;68064;53.100;8.824;2023-08-20T01:47:46;4.93;;;1.05;;
78744;SDS011;68064;53.100;8.824;2023-08-20T01:49:47;6.10;;;0.90;;
78744;SDS011;68064;53.100;8.824;2023-08-20T01:50:49;7.50;;;0.95;;
78744;SDS011;68064;53.100;8.824;2023-08-20T01:51:50;7.03;;;1.10;;
78744;SDS011;68064;53.100;8.824;2023-08-20T01:52:52;6.13;;;0.77;;
78744;SDS011;68064;53.100;8.824;2023-08-20T01:53:53;6.00;;;0.82;;
78744;SDS011;68064;53.100;8.824;2023-08-20T01:54:55;5.82;;;0.65;;
78744;SDS011;68064;53.100;8.824;2023-08-20T01:55:56;5.10;;;0.95;;
78744;SDS011;68064;53.100;8.824;2023-08-20T01:57:58;6.07;;;0.85;;
78744;SDS011;68064;53.100;8.824;2023-08-20T02:00:02;6.30;;;1.05;;
78744;SDS011;68064;53.100;8.824;2023-08-20T02:01:03;6.18;;;0.93;;
78744;SDS011;68064;53.100;8.824;2023-08-20T02:03:05;5.10;;;1.08;;
78744;SDS011;68064;53.100;8.824;2023-08-20T02:05:07;4.43;;;0.60;;
78744;SDS011;68064;53.100;8.824;2023-08-20T02:06:08;4.82;;;1.00;;
78744;SDS011;68064;53.100;8.824;2023-08-20T02:07:09;5.25;;;0.93;;
78744;SDS011;68064;53.100;8.824;2023-08-20T02:09:11;4.55;;;0.70;;
78744;SDS011;68064;53.100;8.824;2023-08-20T02:10:12;5.32;;;0.98;;
78744;SDS011;68064;53.100;8.824;2023-08-20T02:12:14;6.45;;;0.80;;
78744;SDS011;68064;53.100;8.824;2023-08-20T02:13:16;6.35;;;1.33;;
78744;SDS011;68064;53.100;8.824;2023-08-20T02:15:19;9.57;;;2.85;;
78744;SDS011;68064;53.100;8.824;2023-08-20T02:17:21;5.00;;;0.80;;
78744;SDS011;68064;53.100;8.824;2023-08-20T02:19:23;5.55;;;1.15;;
78744;SDS011;68064;53.100;8.824;2023-08-20T02:20:24;7.50;;;0.88;;
78744;SDS011;68064;53.100;8.824;2023-08-20T02:21:27;5.88;;;0.60;;
78744;SDS011;68064;53.100;8.824;2023-08-20T02:22:28;4.03;;;0.60;;
78744;SDS011;68064;53.100;8.824;2023-08-20T02:24:30;7.07;;;0.90;;
78744;SDS011;68064;53.100;8.824;2023-08-20T02:26:32;7.03;;;1.15;;
78744;SDS011;68064;53.100;8.824;2023-08-20T02:28:34;5.88;;;0.82;;
78744;SDS011;68064;53.100;8.824;2023-08-20T02:29:36;5.15;;;0.68;;
78744;SDS011;68064;53.100;8.824;2023-08-20T02:30:39;6.28;;;1.25;;
78744;SDS011;68064;53.100;8.824;2023-08-20T02:31:41;5.75;;;1.05;;
78744;SDS011;68064;53.100;8.824;2023-08-20T02:32:42;5.57;;;0.85;;
78744;SDS011;68064;53.100;8.824;2023-08-20T02:33:43;6.57;;;0.93;;
78744;SDS011;68064;53.100;8.824;2023-08-20T02:35:48;4.35;;;0.52;;
78744;SDS011;68064;53.100;8.824;2023-08-20T02:36:50;6.28;;;1.25;;
78744;SDS011;68064;53.100;8.824;2023-08-20T02:38:52;5.78;;;0.73;;
78744;SDS011;68064;53.100;8.824;2023-08-20T02:40:54;6.30;;;0.82;;
78744;SDS011;68064;53.100;8.824;2023-08-20T02:42:55;6.13;;;0.95;;
78744;SDS011;68064;53.100;8.824;2023-08-20T02:44:59;6.10;;;0.70;;
78744;SDS011;68064;53.100;8.824;2023-08-20T02:46:00;5.80;;;0.73;;
78744;SDS011;68064;53.100;8.824;2023-08-20T02:47:01;5.18;;;0.65;;
78744;SDS011;68064;53.100;8.824;2023-08-20T02:48:02;6.60;;;1.10;;
78744;SDS011;68064;53.100;8.824;2023-08-20T02:49:04;4.90;;;0.65;;
78744;SDS011;68064;53.100;8.824;2023-08-20T02:51:06;7.63;;;0.77;;
78744;SDS011;68064;53.100;8.824;2023-08-20T02:52:07;6.90;;;0.82;;
78744;SDS011;68064;53.100;8.824;2023-08-20T02:54:09;6.70;;;1.73;;
78744;SDS011;68064;53.100;8.824;2023-08-20T02:56:11;5.50;;;0.73;;
78744;SDS011;68064;53.100;8.824;2023-08-20T02:57:12;4.43;;;0.70;;
78744;SDS011;68064;53.100;8.824;2023-08-20T02:58:13;5.93;;;1.20;;
78744;SDS011;68064;53.100;8.824;2023-08-20T02:59:17;7.15;;;0.90;;
78744;SDS011;68064;53.100;8.824;2023-08-20T03:00:19;5.72;;;0.75;;
78744;SDS011;68064;53.100;8.824;2023-08-20T03:01:21;5.32;;;0.68;;
78744;SDS011;68064;53.100;8.824;2023-08-20T03:02:23;6.25;;;1.45;;
78744;SDS011;68064;53.100;8.824;2023-08-20T03:03:24;6.68;;;0.80;;
78744;SDS011;68064;53.100;8.824;2023-08-20T03:05:26;6.05;;;1.27;;
78744;SDS011;68064;53.100;8.824;2023-08-20T03:07:28;5.75;;;0.57;;
78744;SDS011;68064;53.100;8.824;2023-08-20T03:08:29;7.38;;;1.13;;
78744;SDS011;68064;53.100;8.824;2023-08-20T03:09:30;4.88;;;0.55;;
78744;SDS011;68064;53.100;8.824;2023-08-20T03:10:32;5.35;;;0.73;;
78744;SDS011;68064;53.100;8.824;2023-08-20T03:11:33;5.18;;;0.85;;
78744;SDS011;68064;53.100;8.824;2023-08-20T03:13:35;6.20;;;0.75;;
78744;SDS011;68064;53.100;8.824;2023-08-20T03:15:38;5.90;;;0.93;;
78744;SDS011;68064;53.100;8.824;2023-08-20T03:16:39;5.97;;;1.10;;
78744;SDS011;68064;53.100;8.824;2023-08-20T03:17:40;6.93;;;1.15;;
78744;SDS011;68064;53.100;8.824;2023-08-20T03:18:42;9.52;;;1.23;;
78744;SDS011;68064;53.100;8.824;2023-08-20T03:19:53;4.45;;;1.15;;
78744;SDS011;68064;53.100;8.824;2023-08-20T03:20:55;5.40;;;1.08;;
78744;SDS011;68064;53.100;8.824;2023-08-20T03:21:56;5.05;;;0.77;;
78744;SDS011;68064;53.100;8.824;2023-08-20T03:22:57;4.38;;;0.70;;
78744;SDS011;68064;53.100;8.824;2023-08-20T03:24:59;5.63;;;1.15;;
78744;SDS011;68064;53.100;8.824;2023-08-20T03:26:00;6.78;;;0.52;;
78744;SDS011;68064;53.100;8.824;2023-08-20T03:27:01;6.03;;;0.52;;
78744;SDS011;68064;53.100;8.824;2023-08-20T03:29:03;5.78;;;1.00;;
78744;SDS011;68064;53.100;8.824;2023-08-20T03:30:05;5.45;;;0.70;;
78744;SDS011;68064;53.100;8.824;2023-08-20T03:31:08;6.55;;;1.00;;
78744;SDS011;68064;53.100;8.824;2023-08-20T03:32:09;6.00;;;0.85;;
78744;SDS011;68064;53.100;8.824;2023-08-20T03:34:11;5.43;;;0.82;;
78744;SDS011;68064;53.100;8.824;2023-08-20T03:35:12;6.30;;;0.98;;
78744;SDS011;68064;53.100;8.824;2023-08-20T03:36:14;5.80;;;0.88;;
78744;SDS011;68064;53.100;8.824;2023-08-20T03:37:15;5.20;;;0.80;;
78744;SDS011;68064;53.100;8.824;2023-08-20T03:38:16;5.43;;;0.85;;
78744;SDS011;68064;53.100;8.824;2023-08-20T03:40:18;5.85;;;1.13;;
78744;SDS011;68064;53.100;8.824;2023-08-20T03:41:22;5.72;;;0.70;;
78744;SDS011;68064;53.100;8.824;2023-08-20T03:42:24;4.28;;;0.47;;
78744;SDS011;68064;53.100;8.824;2023-08-20T03:44:26;6.60;;;0.98;;
78744;SDS011;68064;53.100;8.824;2023-08-20T03:46:29;5.72;;;0.90;;
78744;SDS011;68064;53.100;8.824;2023-08-20T03:47:30;5.47;;;0.55;;
78744;SDS011;68064;53.100;8.824;2023-08-20T03:48:32;4.88;;;0.88;;
78744;SDS011;68064;53.100;8.824;2023-08-20T03:49:33;6.10;;;0.75;;
78744;SDS011;68064;53.100;8.824;2023-08-20T03:50:34;4.65;;;0.63;;
78744;SDS011;68064;53.100;8.824;2023-08-20T03:51:35;5.15;;;0.80;;
78744;SDS011;68064;53.100;8.824;2023-08-20T03:53:37;6.82;;;0.90;;
78744;SDS011;68064;53.100;8.824;2023-08-20T03:55:39;6.65;;;1.23;;
78744;SDS011;68064;53.100;8.824;2023-08-20T03:56:40;6.55;;;0.93;;
78744;SDS011;68064;53.100;8.824;2023-08-20T03:58:42;6.40;;;1.00;;
78744;SDS011;68064;53.100;8.824;2023-08-20T04:00:44;6.15;;;1.05;;
78744;SDS011;68064;53.100;8.824;2023-08-20T04:01:47;4.85;;;0.80;;
78744;SDS011;68064;53.100;8.824;2023-08-20T04:02:48;7.88;;;1.50;;
78744;SDS011;68064;53.100;8.824;2023-08-20T04:03:49;8.23;;;1.42;;
78744;SDS011;68064;53.100;8.824;2023-08-20T04:05:51;5.78;;;0.95;;
78744;SDS011;68064;53.100;8.824;2023-08-20T04:06:52;5.97;;;0.95;;
78744;SDS011;68064;53.100;8.824;2023-08-20T04:08:54;6.13;;;1.05;;
78744;SDS011;68064;53.100;8.824;2023-08-20T04:09:55;6.55;;;1.40;;
78744;SDS011;68064;53.100;8.824;2023-08-20T04:11:57;5.75;;;0.60;;
78744;SDS011;68064;53.100;8.824;2023-08-20T04:12:58;6.15;;;1.20;;
78744;SDS011;68064;53.100;8.824;2023-08-20T04:14:00;5.63;;;0.70;;
78744;SDS011;68064;53.100;8.824;2023-08-20T04:15:01;4.57;;;0.93;;
78744;SDS011;68064;53.100;8.824;2023-08-20T04:16:03;7.25;;;0.82;;
78744;SDS011;68064;53.100;8.824;2023-08-20T04:18:06;4.82;;;0.88;;
78744;SDS011;68064;53.100;8.824;2023-08-20T04:19:07;4.45;;;0.93;;
78744;SDS011;68064;53.100;8.824;2023-08-20T04:20:12;6.15;;;1.45;;
78744;SDS011;68064;53.100;8.824;2023-08-20T04:21:13;4.78;;;0.80;;
78744;SDS011;68064;53.100;8.824;2023-08-20T04:22:14;7.35;;;0.80;;
78744;SDS011;68064;53.100;8.824;2023-08-20T04:24:16;5.45;;;0.82;;
78744;SDS011;68064;53.100;8.824;2023-08-20T04:26:18;6.57;;;1.25;;
78744;SDS011;68064;53.100;8.824;2023-08-20T04:27:19;5.75;;;1.40;;
78744;SDS011;68064;53.100;8.824;2023-08-20T04:28:20;6.47;;;0.52;;
78744;SDS011;68064;53.100;8.824;2023-08-20T04:29:21;6.72;;;1.33;;
78744;SDS011;68064;53.100;8.824;2023-08-20T04:31:23;5.45;;;0.88;;
78744;SDS011;68064;53.100;8.824;2023-08-20T04:32:25;6.72;;;0.60;;
78744;SDS011;68064;53.100;8.824;2023-08-20T04:33:29;5.30;;;1.05;;
78744;SDS011;68064;53.100;8.824;2023-08-20T04:34:30;4.78;;;0.70;;
78744;SDS011;68064;53.100;8.824;2023-08-20T04:35:31;6.28;;;0.90;;
78744;SDS011;68064;53.100;8.824;2023-08-20T04:36:32;6.45;;;0.93;;
78744;SDS011;68064;53.100;8.824;2023-08-20T04:37:33;5.78;;;1.00;;
78744;SDS011;68064;53.100;8.824;2023-08-20T04:38:34;6.63;;;1.02;;
78744;SDS011;68064;53.100;8.824;2023-08-20T04:39:35;6.32;;;1.10;;
78744;SDS011;68064;53.100;8.824;2023-08-20T04:40:37;5.85;;;1.05;;
78744;SDS011;68064;53.100;8.824;2023-08-20T04:42:39;6.10;;;0.80;;
78744;SDS011;68064;53.100;8.824;2023-08-20T04:43:40;6.60;;;1.38;;
78744;SDS011;68064;53.100;8.824;2023-08-20T04:45:42;5.45;;;0.85;;
78744;SDS011;68064;53.100;8.824;2023-08-20T04:47:45;7.03;;;1.50;;
78744;SDS011;68064;53.100;8.824;2023-08-20T04:48:47;7.15;;;1.10;;
78744;SDS011;68064;53.100;8.824;2023-08-20T04:49:48;7.85;;;0.98;;
78744;SDS011;68064;53.100;8.824;2023-08-20T04:51:50;5.82;;;0.90;;
78744;SDS011;68064;53.100;8.824;2023-08-20T04:52:51;6.05;;;1.42;;
78744;SDS011;68064;53.100;8.824;2023-08-20T04:53:52;5.80;;;0.90;;
78744;SDS011;68064;53.100;8.824;2023-08-20T04:55:54;7.53;;;1.00;;
78744;SDS011;68064;53.100;8.824;2023-08-20T04:56:55;4.75;;;0.70;;
78744;SDS011;68064;53.100;8.824;2023-08-20T04:57:56;5.78;;;0.60;;
78744;SDS011;68064;53.100;8.824;2023-08-20T04:59:59;5.20;;;0.65;;
78744;SDS011;68064;53.100;8.824;2023-08-20T05:01:02;6.10;;;0.93;;
78744;SDS011;68064;53.100;8.824;2023-08-20T05:03:06;7.28;;;1.00;;
78744;SDS011;68064;53.100;8.824;2023-08-20T05:04:07;5.95;;;0.93;;
78744;SDS011;68064;53.100;8.824;2023-08-20T05:06:09;7.25;;;0.75;;
78744;SDS011;68064;53.100;8.824;2023-08-20T05:07:10;6.18;;;1.02;;
78744;SDS011;68064;53.100;8.824;2023-08-20T05:09:12;6.00;;;1.02;;
78744;SDS011;68064;53.100;8.824;2023-08-20T05:11:14;6.93;;;1.30;;
78744;SDS011;68064;53.100;8.824;2023-08-20T05:12:15;6.82;;;0.85;;
78744;SDS011;68064;53.100;8.824;2023-08-20T05:13:16;7.18;;;1.20;;
78744;SDS011;68064;53.100;8.824;2023-08-20T05:15:18;6.82;;;0.70;;
78744;SDS011;68064;53.100;8.824;2023-08-20T05:16:19;6.60;;;0.75;;
78744;SDS011;68064;53.100;8.824;2023-08-20T05:17:20;5.95;;;1.13;;
78744;SDS011;68064;53.100;8.824;2023-08-20T05:19:23;6.65;;;1.10;;
78744;SDS011;68064;53.100;8.824;2023-08-20T05:20:24;4.18;;;0.52;;
78744;SDS011;68064;53.100;8.824;2023-08-20T05:21:26;6.30;;;1.30;;
78744;SDS011;68064;53.100;8.824;2023-08-20T05:22:27;7.10;;;1.52;;
78744;SDS011;68064;53.100;8.824;2023-08-20T05:23:28;6.43;;;1.20;;
78744;SDS011;68064;53.100;8.824;2023-08-20T05:24:29;5.38;;;0.82;;
78744;SDS011;68064;53.100;8.824;2023-08-20T05:25:30;6.32;;;0.70;;
78744;SDS011;68064;53.100;8.824;2023-08-20T05:26:31;6.40;;;1.95;;
78744;SDS011;68064;53.100;8.824;2023-08-20T05:27:32;7.65;;;1.02;;
78744;SDS011;68064;53.100;8.824;2023-08-20T05:29:34;4.15;;;0.52;;
78744;SDS011;68064;53.100;8.824;2023-08-20T05:30:36;6.32;;;0.82;;
78744;SDS011;68064;53.100;8.824;2023-08-20T05:31:37;5.95;;;0.82;;
78744;SDS011;68064;53.100;8.824;2023-08-20T05:32:38;7.15;;;0.88;;
78744;SDS011;68064;53.100;8.824;2023-08-20T05:33:40;7.53;;;1.38;;
78744;SDS011;68064;53.100;8.824;2023-08-20T05:34:41;6.65;;;1.00;;
78744;SDS011;68064;53.100;8.824;2023-08-20T05:35:43;5.90;;;1.50;;
78744;SDS011;68064;53.100;8.824;2023-08-20T05:36:45;6.75;;;0.98;;
78744;SDS011;68064;53.100;8.824;2023-08-20T05:37:46;6.15;;;0.70;;
78744;SDS011;68064;53.100;8.824;2023-08-20T05:38:47;5.75;;;0.82;;
78744;SDS011;68064;53.100;8.824;2023-08-20T05:39:48;5.93;;;0.90;;
78744;SDS011;68064;53.100;8.824;2023-08-20T05:40:49;5.63;;;0.73;;
78744;SDS011;68064;53.100;8.824;2023-08-20T05:42:51;7.38;;;1.20;;
78744;SDS011;68064;53.100;8.824;2023-08-20T05:43:52;7.85;;;1.88;;
78744;SDS011;68064;53.100;8.824;2023-08-20T05:44:53;11.93;;;3.08;;
78744;SDS011;68064;53.100;8.824;2023-08-20T05:46:55;10.40;;;2.88;;
78744;SDS011;68064;53.100;8.824;2023-08-20T05:47:56;11.13;;;2.92;;
78744;SDS011;68064;53.100;8.824;2023-08-20T05:48:59;10.20;;;2.88;;
78744;SDS011;68064;53.100;8.824;2023-08-20T05:50:00;10.27;;;3.55;;
78744;SDS011;68064;53.100;8.824;2023-08-20T05:51:01;10.50;;;3.45;;
78744;SDS011;68064;53.100;8.824;2023-08-20T05:52:03;11.35;;;3.83;;
78744;SDS011;68064;53.100;8.824;2023-08-20T05:53:04;13.68;;;4.05;;
78744;SDS011;68064;53.100;8.824;2023-08-20T05:54:05;11.65;;;3.25;;
78744;SDS011;68064;53.100;8.824;2023-08-20T05:55:07;9.40;;;3.13;;
78744;SDS011;68064;53.100;8.824;2023-08-20T05:56:08;10.20;;;2.58;;
78744;SDS011;68064;53.100;8.824;2023-08-20T05:57:09;11.77;;;4.03;;
78744;SDS011;68064;53.100;8.824;2023-08-20T05:58:10;9.18;;;2.20;;
78744;SDS011;68064;53.100;8.824;2023-08-20T05:59:11;15.35;;;4.75;;
78744;SDS011;68064;53.100;8.824;2023-08-20T06:00:12;11.00;;;3.10;;
78744;SDS011;68064;53.100;8.824;2023-08-20T06:02:15;11.68;;;3.72;;
78744;SDS011;68064;53.100;8.824;2023-08-20T06:03:17;14.32;;;4.45;;
78744;SDS011;68064;53.100;8.824;2023-08-20T06:04:19;14.50;;;3.30;;
78744;SDS011;68064;53.100;8.824;2023-08-20T06:05:20;9.80;;;1.65;;
78744;SDS011;68064;53.100;8.824;2023-08-20T06:06:21;12.93;;;4.07;;
78744;SDS011;68064;53.100;8.824;2023-08-20T06:07:22;14.20;;;4.70;;
78744;SDS011;68064;53.100;8.824;2023-08-20T06:08:23;15.23;;;3.97;;
78744;SDS011;68064;53.100;8.824;2023-08-20T06:09:25;14.13;;;3.78;;
78744;SDS011;68064;53.100;8.824;2023-08-20T06:10:26;11.63;;;3.53;;
78744;SDS011;68064;53.100;8.824;2023-08-20T06:12:28;13.07;;;3.50;;
78744;SDS011;68064;53.100;8.824;2023-08-20T06:13:29;12.10;;;3.58;;
78744;SDS011;68064;53.100;8.824;2023-08-20T06:15:31;7.55;;;1.88;;
78744;SDS011;68064;53.100;8.824;2023-08-20T06:17:32;12.75;;;4.03;;
78744;SDS011;68064;53.100;8.824;2023-08-20T06:18:34;11.35;;;2.38;;
78744;SDS011;68064;53.100;8.824;2023-08-20T06:20:37;13.73;;;4.53;;
78744;SDS011;68064;53.100;8.824;2023-08-20T06:21:38;12.57;;;3.45;;
78744;SDS011;68064;53.100;8.824;2023-08-20T06:22:39;14.02;;;4.03;;
78744;SDS011;68064;53.100;8.824;2023-08-20T06:24:41;6.93;;;1.55;;
78744;SDS011;68064;53.100;8.824;2023-08-20T06:25:42;10.57;;;1.73;;
78744;SDS011;68064;53.100;8.824;2023-08-20T06:26:43;10.88;;;3.15;;
78744;SDS011;68064;53.100;8.824;2023-08-20T06:27:44;13.77;;;3.63;;
78744;SDS011;68064;53.100;8.824;2023-08-20T06:29:46;7.82;;;1.88;;
78744;SDS011;68064;53.100;8.824;2023-08-20T06:30:47;9.82;;;1.95;;
78744;SDS011;68064;53.100;8.824;2023-08-20T06:31:48;12.25;;;2.95;;
78744;SDS011;68064;53.100;8.824;2023-08-20T06:32:50;10.60;;;2.40;;
78744;SDS011;68064;53.100;8.824;2023-08-20T06:33:51;13.45;;;4.35;;
78744;SDS011;68064;53.100;8.824;2023-08-20T06:34:53;12.23;;;3.80;;
78744;SDS011;68064;53.100;8.824;2023-08-20T06:35:54;11.23;;;2.65;;
78744;SDS011;68064;53.100;8.824;2023-08-20T06:36:56;10.85;;;2.85;;
78744;SDS011;68064;53.100;8.824;2023-08-20T06:37:57;10.93;;;2.90;;
78744;SDS011;68064;53.100;8.824;2023-08-20T06:38:58;8.98;;;2.03;;
78744;SDS011;68064;53.100;8.824;2023-08-20T06:41:00;7.72;;;2.03;;
78744;SDS011;68064;53.100;8.824;2023-08-20T06:42:01;7.88;;;2.10;;
78744;SDS011;68064;53.100;8.824;2023-08-20T06:44:03;11.05;;;2.38;;
78744;SDS011;68064;53.100;8.824;2023-08-20T06:45:05;8.50;;;2.38;;
78744;SDS011;68064;53.100;8.824;2023-08-20T06:46:07;10.40;;;2.58;;
78744;SDS011;68064;53.100;8.824;2023-08-20T06:47:08;8.20;;;2.17;;
78744;SDS011;68064;53.100;8.824;2023-08-20T06:49:10;8.32;;;1.73;;
78744;SDS011;68064;53.100;8.824;2023-08-20T06:50:12;8.10;;;2.10;;
78744;SDS011;68064;53.100;8.824;2023-08-20T06:51:13;9.00;;;1.88;;
78744;SDS011;68064;53.100;8.824;2023-08-20T06:52:15;9.07;;;1.90;;
78744;SDS011;68064;53.100;8.824;2023-08-20T06:53:16;7.88;;;2.15;;
78744;SDS011;68064;53.100;8.824;2023-08-20T06:54:17;9.65;;;1.80;;
78744;SDS011;68064;53.100;8.824;2023-08-20T06:56:19;9.80;;;1.25;;
78744;SDS011;68064;53.100;8.824;2023-08-20T06:58:21;6.35;;;1.20;;
78744;SDS011;68064;53.100;8.824;2023-08-20T07:00:24;10.68;;;1.75;;
78744;SDS011;68064;53.100;8.824;2023-08-20T07:01:25;8.07;;;1.33;;
78744;SDS011;68064;53.100;8.824;2023-08-20T07:02:26;6.20;;;1.00;;
78744;SDS011;68064;53.100;8.824;2023-08-20T07:03:28;7.47;;;1.35;;
78744;SDS011;68064;53.100;8.824;2023-08-20T07:04:29;7.88;;;1.05;;
78744;SDS011;68064;53.100;8.824;2023-08-20T07:05:31;6.18;;;0.73;;
78744;SDS011;68064;53.100;8.824;2023-08-20T07:06:33;5.95;;;0.70;;
78744;SDS011;68064;53.100;8.824;2023-08-20T07:07:34;8.25;;;1.27;;
78744;SDS011;68064;53.100;8.824;2023-08-20T07:08:35;9.70;;;1.77;;
78744;SDS011;68064;53.100;8.824;2023-08-20T07:09:37;7.30;;;1.00;;
78744;SDS011;68064;53.100;8.824;2023-08-20T07:10:38;6.88;;;0.80;;
78744;SDS011;68064;53.100;8.824;2023-08-20T07:11:39;6.75;;;0.95;;
78744;SDS011;68064;53.100;8.824;2023-08-20T07:13:41;5.90;;;1.52;;
78744;SDS011;68064;53.100;8.824;2023-08-20T07:14:42;7.93;;;0.95;;
78744;SDS011;68064;53.100;8.824;2023-08-20T07:16:44;6.88;;;1.02;;
78744;SDS011;68064;53.100;8.824;2023-08-20T07:17:46;7.18;;;1.00;;
78744;SDS011;68064;53.100;8.824;2023-08-20T07:18:47;7.18;;;1.17;;
78744;SDS011;68064;53.100;8.824;2023-08-20T07:20:52;5.90;;;1.00;;
78744;SDS011;68064;53.100;8.824;2023-08-20T07:21:53;8.77;;;1.45;;
78744;SDS011;68064;53.100;8.824;2023-08-20T07:22:55;5.00;;;0.50;;
78744;SDS011;68064;53.100;8.824;2023-08-20T07:23:56;6.20;;;0.93;;
78744;SDS011;68064;53.100;8.824;2023-08-20T07:24:57;7.97;;;0.70;;
78744;SDS011;68064;53.100;8.824;2023-08-20T07:26:05;5.45;;;0.90;;
78744;SDS011;68064;53.100;8.824;2023-08-20T07:27:07;4.60;;;0.73;;
78744;SDS011;68064;53.100;8.824;2023-08-20T07:28:08;11.00;;;0.85;;
78744;SDS011;68064;53.100;8.824;2023-08-20T07:29:09;8.88;;;0.60;;
78744;SDS011;68064;53.100;8.824;2023-08-20T07:30:13;7.63;;;0.73;;
78744;SDS011;68064;53.100;8.824;2023-08-20T07:31:14;5.90;;;0.63;;
78744;SDS011;68064;53.100;8.824;2023-08-20T07:32:16;3.40;;;0.43;;
78744;SDS011;68064;53.100;8.824;2023-08-20T07:33:17;5.60;;;0.63;;
78744;SDS011;68064;53.100;8.824;2023-08-20T07:34:19;5.20;;;0.45;;
78744;SDS011;68064;53.100;8.824;2023-08-20T07:35:20;6.50;;;0.77;;
78744;SDS011;68064;53.100;8.824;2023-08-20T07:36:23;7.28;;;0.52;;
78744;SDS011;68064;53.100;8.824;2023-08-20T07:37:26;6.97;;;0.90;;
78744;SDS011;68064;53.100;8.824;2023-08-20T07:38:28;3.90;;;0.65;;
78744;SDS011;68064;53.100;8.824;2023-08-20T07:40:30;6.53;;;1.13;;
78744;SDS011;68064;53.100;8.824;2023-08-20T07:41:31;3.72;;;0.55;;